Time;durP1;ratioP1;P1;durP2;ratioP2;P2;SDS_P1;SDS_P2;PMS_P1;PMS_P2;Temp;Humidity;BMP_temperature;BMP_pressure;BME280_temperature;BME280_humidity;BME280_pressure;Samples;Min_cycle;Max_cycle;Signal;HPM_P1;HPM_P2
2023/09/21 00:00:20;;;;;;;3.53;2.15;;;;;;;17.10;100.00;99837.16;5048298;28;20123;-89
2023/09/21 00:02:51;;;;;;;4.60;1.95;;;;;;;17.05;100.00;99824.34;5066916;28;20483;-89
2023/09/21 00:05:23;;;;;;;4.93;2.65;;;;;;;17.15;100.00;99833.78;5058343;28;20028;-88
2023/09/21 00:07:52;;;;;;;4.57;1.80;;;;;;;17.09;100.00;99827.88;5044978;28;20547;-86
2023/09/21 00:10:18;;;;;;;4.22;2.58;;;;;;;17.11;100.00;99822.56;5049599;28;20032;-89
2023/09/21 00:12:44;;;;;;;2.78;2.10;;;;;;;17.19;100.00;99823.94;5069565;28;20388;-88
2023/09/21 00:15:12;;;;;;;5.47;2.13;;;;;;;17.17;100.00;99808.69;5046310;28;20059;-87
2023/09/21 00:17:38;;;;;;;6.00;1.98;;;;;;;17.21;100.00;99815.81;5040115;28;20048;-87
2023/09/21 00:20:25;;;;;;;4.15;1.98;;;;;;;17.24;100.00;99820.56;5064053;28;20461;-88
2023/09/21 00:22:53;;;;;;;3.10;1.60;;;;;;;17.28;100.00;99807.09;5053796;28;20043;-86
2023/09/21 00:25:19;;;;;;;3.80;1.90;;;;;;;17.28;100.00;99801.44;5048490;28;20036;-86
2023/09/21 00:27:45;;;;;;;6.82;2.00;;;;;;;17.26;100.00;99801.09;5051438;28;20029;-87
2023/09/21 00:30:11;;;;;;;4.45;1.70;;;;;;;17.25;100.00;99793.88;5065069;28;20393;-87
2023/09/21 00:32:40;;;;;;;3.97;1.67;;;;;;;17.27;100.00;99784.94;5062829;28;20047;-87
2023/09/21 00:35:09;;;;;;;4.00;1.60;;;;;;;17.28;100.00;99787.28;5067826;28;20025;-87
2023/09/21 00:37:39;;;;;;;2.15;1.70;;;;;;;17.36;100.00;99787.09;5066328;28;20406;-84
2023/09/21 00:40:14;;;;;;;3.70;2.47;;;;;;;17.36;100.00;99789.94;5049282;28;20032;-87
2023/09/21 00:42:41;;;;;;;9.07;2.13;;;;;;;17.31;100.00;99784.81;5068325;28;20062;-85
2023/09/21 00:45:08;;;;;;;3.38;1.88;;;;;;;17.27;100.00;99779.28;5065232;28;20029;-86
2023/09/21 00:47:37;;;;;;;3.65;2.05;;;;;;;17.23;100.00;99770.91;5066588;28;20052;-86
2023/09/21 00:50:10;;;;;;;4.22;2.55;;;;;;;17.21;100.00;99764.13;5063562;28;20020;-87
2023/09/21 00:52:40;;;;;;;6.32;2.20;;;;;;;17.14;100.00;99770.78;5041420;28;20590;-84
2023/09/21 00:55:11;;;;;;;3.80;1.88;;;;;;;17.13;100.00;99766.38;5060667;28;20028;-86
2023/09/21 00:57:36;;;;;;;5.13;2.28;;;;;;;17.14;100.00;99759.47;5046316;28;20081;-86
2023/09/21 01:00:18;;;;;;;4.32;1.95;;;;;;;17.13;100.00;99757.88;5065216;28;20033;-85
2023/09/21 01:02:46;;;;;;;5.87;2.17;;;;;;;17.11;100.00;99748.28;5061481;28;20653;-86
2023/09/21 01:05:13;;;;;;;3.88;1.98;;;;;;;17.10;100.00;99739.00;5066864;28;20029;-83
2023/09/21 01:07:39;;;;;;;5.18;2.40;;;;;;;17.12;100.00;99745.00;5065347;28;20032;-86
2023/09/21 01:10:08;;;;;;;3.30;2.13;;;;;;;17.14;100.00;99741.69;5051477;28;20032;-85
2023/09/21 01:12:39;;;;;;;3.70;1.63;;;;;;;17.17;100.00;99735.94;5062400;28;20876;-87
2023/09/21 01:15:10;;;;;;;3.92;2.00;;;;;;;17.20;100.00;99740.72;5063173;28;20127;-80
2023/09/21 01:17:41;;;;;;;6.05;2.42;;;;;;;17.19;100.00;99741.94;5058766;28;20020;-80
2023/09/21 01:20:27;;;;;;;3.42;1.55;;;;;;;17.26;100.00;99738.09;5059226;28;20032;-81
2023/09/21 01:23:04;;;;;;;4.50;1.50;;;;;;;17.31;100.00;99737.56;5064507;28;20050;-80
2023/09/21 01:25:29;;;;;;;7.03;2.35;;;;;;;17.35;100.00;99734.59;5059556;28;20031;-80
2023/09/21 01:27:55;;;;;;;3.22;1.85;;;;;;;17.47;100.00;99739.47;5065155;28;20028;-80
2023/09/21 01:30:20;;;;;;;7.88;2.55;;;;;;;17.45;100.00;99737.06;5045250;28;20488;-80
2023/09/21 01:32:45;;;;;;;3.83;1.92;;;;;;;17.47;100.00;99725.31;5062615;28;20107;-80
2023/09/21 01:35:12;;;;;;;3.65;2.28;;;;;;;17.45;100.00;99727.81;5062698;28;20075;-79
2023/09/21 01:37:37;;;;;;;5.55;1.75;;;;;;;17.43;100.00;99713.31;5065208;28;20108;-80
2023/09/21 01:40:16;;;;;;;4.60;2.08;;;;;;;17.42;100.00;99714.56;5050320;28;20442;-81
2023/09/21 01:42:44;;;;;;;4.20;2.33;;;;;;;17.46;100.00;99715.25;5063512;28;20119;-79
2023/09/21 01:45:10;;;;;;;3.78;1.80;;;;;;;17.50;100.00;99713.09;5064527;28;20024;-80
2023/09/21 01:47:36;;;;;;;3.38;2.40;;;;;;;17.48;100.00;99704.28;5047713;28;20039;-79
2023/09/21 01:50:03;;;;;;;3.90;1.60;;;;;;;17.47;100.00;99714.78;5064237;28;20024;-79
2023/09/21 01:52:30;;;;;;;5.30;2.08;;;;;;;17.55;100.00;99703.25;5046658;28;20493;-80
2023/09/21 01:54:55;;;;;;;3.40;1.60;;;;;;;17.40;100.00;99680.28;5058575;28;20509;-80
2023/09/21 01:57:21;;;;;;;4.97;1.92;;;;;;;17.50;100.00;99692.47;5042894;28;20084;-80
2023/09/21 01:59:46;;;;;;;4.82;1.73;;;;;;;17.44;100.00;99689.47;5040236;28;20118;-79
2023/09/21 02:02:13;;;;;;;6.72;1.95;;;;;;;17.42;100.00;99683.47;5062030;28;20111;-81
2023/09/21 02:04:39;;;;;;;3.13;1.80;;;;;;;17.44;100.00;99686.63;5064292;28;20102;-79
2023/09/21 02:07:04;;;;;;;5.07;2.00;;;;;;;17.46;100.00;99682.09;5064381;28;20477;-81
2023/09/21 02:09:33;;;;;;;4.63;1.77;;;;;;;17.53;100.00;99678.22;5064141;28;20474;-81
2023/09/21 02:11:58;;;;;;;2.35;1.60;;;;;;;17.53;100.00;99678.22;5063453;28;20028;-81
2023/09/21 02:14:23;;;;;;;2.45;1.48;;;;;;;17.57;100.00;99678.91;5042797;28;20504;-80
2023/09/21 02:16:49;;;;;;;2.58;1.60;;;;;;;17.54;100.00;99670.53;5067192;28;20496;-81
2023/09/21 02:19:15;;;;;;;3.20;1.80;;;;;;;17.55;100.00;99669.28;5046898;28;20484;-80
2023/09/21 02:21:40;;;;;;;6.72;2.00;;;;;;;17.49;100.00;99671.91;5049321;28;20036;-80
2023/09/21 02:24:06;;;;;;;3.67;1.67;;;;;;;17.51;100.00;99663.75;5048536;28;20033;-81
2023/09/21 02:26:31;;;;;;;4.72;1.60;;;;;;;17.56;100.00;99666.03;5049462;28;20028;-80
2023/09/21 02:28:56;;;;;;;4.05;2.10;;;;;;;17.54;100.00;99670.53;5047644;28;20021;-80
2023/09/21 02:31:22;;;;;;;3.60;2.00;;;;;;;17.48;100.00;99659.00;5045287;28;20024;-80
2023/09/21 02:33:47;;;;;;;3.88;2.65;;;;;;;17.49;100.00;99663.41;5053193;28;20029;-79
2023/09/21 02:36:19;;;;;;;4.32;2.03;;;;;;;17.40;100.00;99655.63;5047109;28;20555;-79
2023/09/21 02:38:48;;;;;;;2.95;1.55;;;;;;;17.35;100.00;99663.88;5047953;28;20059;-80
2023/09/21 02:41:13;;;;;;;5.60;1.73;;;;;;;17.36;100.00;99659.81;5062290;28;20073;-79
2023/09/21 02:43:40;;;;;;;2.92;2.22;;;;;;;17.36;100.00;99654.16;5046584;28;20060;-79
2023/09/21 02:46:06;;;;;;;3.17;2.00;;;;;;;17.27;100.00;99643.53;5065502;28;20032;-79
2023/09/21 02:48:31;;;;;;;2.30;1.63;;;;;;;17.25;100.00;99658.13;5047859;28;20028;-80
2023/09/21 02:50:58;;;;;;;4.57;1.95;;;;;;;17.32;100.00;99653.50;5041851;28;20608;-80
2023/09/21 02:53:23;;;;;;;1.92;1.50;;;;;;;17.31;100.00;99654.72;5062215;28;20040;-79
2023/09/21 02:55:50;;;;;;;2.38;1.70;;;;;;;17.26;100.00;99648.38;5062787;28;20040;-80
2023/09/21 02:58:16;;;;;;;2.60;1.35;;;;;;;17.26;100.00;99654.03;5043658;28;20029;-79
2023/09/21 03:00:44;;;;;;;4.10;2.05;;;;;;;17.20;100.00;99653.06;5062851;28;20036;-79
2023/09/21 03:03:14;;;;;;;6.20;1.80;;;;;;;17.27;100.00;99649.97;5063802;28;20593;-79
2023/09/21 03:05:46;;;;;;;3.65;1.80;;;;;;;17.24;100.00;99645.25;5065217;28;20520;-79
2023/09/21 03:08:15;;;;;;;3.35;1.73;;;;;;;17.22;100.00;99653.41;5056871;28;20020;-79
2023/09/21 03:10:41;;;;;;;3.10;1.85;;;;;;;17.21;100.00;99656.66;5062652;28;20040;-80
2023/09/21 03:13:10;;;;;;;4.75;1.92;;;;;;;17.19;100.00;99645.03;5062868;28;20016;-80
2023/09/21 03:15:36;;;;;;;4.18;1.67;;;;;;;17.21;100.00;99660.28;5033005;28;20342;-80
2023/09/21 03:18:03;;;;;;;3.72;1.88;;;;;;;17.16;100.00;99648.75;5033025;28;20530;-79
2023/09/21 03:20:32;;;;;;;2.72;1.88;;;;;;;17.22;100.00;99652.56;5042829;28;20059;-79
2023/09/21 03:23:05;;;;;;;2.67;1.67;;;;;;;17.18;100.00;99652.72;5046393;28;20503;-79
2023/09/21 03:25:41;;;;;;;4.32;2.17;;;;;;;17.23;100.00;99648.53;5026030;28;20025;-80
2023/09/21 03:28:12;;;;;;;2.60;1.48;;;;;;;17.20;100.00;99638.91;5043833;28;20040;-80
2023/09/21 03:30:38;;;;;;;3.42;1.70;;;;;;;17.11;100.00;99630.31;5022569;28;20043;-81
2023/09/21 03:33:05;;;;;;;2.72;1.75;;;;;;;17.20;100.00;99638.09;5050202;28;20047;-79
2023/09/21 03:35:31;;;;;;;3.03;1.50;;;;;;;17.25;100.00;99641.16;5047416;28;20032;-85
2023/09/21 03:37:57;;;;;;;1.95;1.40;;;;;;;17.27;100.00;99638.66;5057378;28;20028;-86
2023/09/21 03:40:25;;;;;;;2.72;1.67;;;;;;;17.24;100.00;99633.94;5044677;28;20508;-85
2023/09/21 03:42:56;;;;;;;3.25;1.60;;;;;;;17.26;100.00;99637.06;5044816;28;20603;-85
2023/09/21 03:45:25;;;;;;;2.55;1.70;;;;;;;17.31;100.00;99634.91;5044401;28;20020;-86
2023/09/21 03:47:54;;;;;;;3.13;2.08;;;;;;;17.29;100.00;99624.09;5028135;28;20036;-85
2023/09/21 03:50:25;;;;;;;5.43;2.38;;;;;;;17.34;100.00;99628.38;5027058;28;20036;-85
2023/09/21 03:52:52;;;;;;;2.40;1.60;;;;;;;17.37;100.00;99624.63;5046211;28;20528;-85
2023/09/21 03:55:17;;;;;;;3.70;1.92;;;;;;;17.32;100.00;99611.06;5025750;28;20037;-85
2023/09/21 03:57:46;;;;;;;4.53;1.90;;;;;;;17.36;100.00;99612.53;5046977;28;20371;-85
2023/09/21 04:00:20;;;;;;;4.53;2.08;;;;;;;17.37;100.00;99614.13;5027585;28;20469;-86
2023/09/21 04:02:45;;;;;;;3.33;2.28;;;;;;;17.37;100.00;99613.31;5035479;28;20423;-86
2023/09/21 04:05:13;;;;;;;3.65;1.52;;;;;;;17.34;100.00;99597.25;5046616;28;20024;-85
2023/09/21 04:07:38;;;;;;;3.85;2.17;;;;;;;17.34;100.00;99605.75;5032846;28;20028;-86
2023/09/21 04:10:06;;;;;;;2.97;1.50;;;;;;;17.33;100.00;99592.84;5034595;28;20551;-85
2023/09/21 04:12:32;;;;;;;5.18;1.70;;;;;;;17.33;100.00;99588.00;5032686;28;20032;-83
2023/09/21 04:14:57;;;;;;;2.53;1.80;;;;;;;17.32;100.00;99589.22;5062958;28;20059;-85
2023/09/21 04:17:22;;;;;;;4.03;1.50;;;;;;;17.36;100.00;99591.94;5065940;28;20025;-86
2023/09/21 04:19:52;;;;;;;3.20;1.67;;;;;;;17.33;100.00;99607.78;5065129;28;20025;-85
2023/09/21 04:22:17;;;;;;;4.80;2.03;;;;;;;17.28;100.00;99600.66;5063470;28;20389;-86
2023/09/21 04:24:43;;;;;;;2.88;1.80;;;;;;;17.27;100.00;99587.78;5049499;28;20025;-86
2023/09/21 04:27:08;;;;;;;3.90;1.92;;;;;;;17.31;100.00;99581.19;5051477;28;20024;-85
2023/09/21 04:29:33;;;;;;;2.60;1.40;;;;;;;17.32;100.00;99583.56;5048032;28;20090;-85
2023/09/21 04:31:59;;;;;;;3.60;2.00;;;;;;;17.28;100.00;99577.25;5061643;28;20024;-86
2023/09/21 04:34:25;;;;;;;3.78;2.00;;;;;;;17.27;100.00;99576.47;5066221;28;20036;-85
2023/09/21 04:36:50;;;;;;;3.42;1.55;;;;;;;17.27;100.00;99578.50;5070075;28;20454;-84
2023/09/21 04:39:15;;;;;;;2.30;1.63;;;;;;;17.31;100.00;99584.81;5056256;28;20115;-85
2023/09/21 04:41:41;;;;;;;2.88;1.75;;;;;;;17.33;100.00;99581.53;5043911;28;20024;-85
2023/09/21 04:44:08;;;;;;;3.63;2.15;;;;;;;17.31;100.00;99576.34;5061281;28;20472;-85
2023/09/21 04:46:36;;;;;;;3.50;1.98;;;;;;;17.30;100.00;99585.28;5058509;28;20074;-79
2023/09/21 04:49:02;;;;;;;5.22;1.67;;;;;;;17.23;100.00;99575.78;5061660;28;20119;-79
2023/09/21 04:51:28;;;;;;;4.78;2.08;;;;;;;17.25;100.00;99584.59;5066231;28;20032;-79
2023/09/21 04:53:53;;;;;;;2.17;1.50;;;;;;;17.25;100.00;99581.00;5048318;28;20024;-79
2023/09/21 04:56:18;;;;;;;2.17;1.63;;;;;;;17.26;100.00;99580.50;5067122;28;20055;-79
2023/09/21 04:58:44;;;;;;;6.95;2.78;;;;;;;17.27;100.00;99582.13;5066017;28;20174;-80
2023/09/21 05:01:09;;;;;;;3.20;1.98;;;;;;;17.27;100.00;99584.94;5066061;28;20508;-80
2023/09/21 05:03:36;;;;;;;3.30;1.80;;;;;;;17.29;100.00;99590.16;5046099;28;20040;-79
2023/09/21 05:06:02;;;;;;;4.05;1.88;;;;;;;17.23;100.00;99589.13;5067336;28;20544;-80
2023/09/21 05:08:29;;;;;;;3.35;1.95;;;;;;;17.29;100.00;99601.47;5067245;28;20028;-79
2023/09/21 05:10:54;;;;;;;3.20;1.95;;;;;;;17.33;100.00;99601.31;5046269;28;20075;-80
2023/09/21 05:13:20;;;;;;;4.50;2.55;;;;;;;17.33;100.00;99590.00;5038814;28;20139;-79
2023/09/21 05:15:48;;;;;;;5.47;2.15;;;;;;;17.31;100.00;99586.84;5062278;28;20095;-80
2023/09/21 05:18:13;;;;;;;5.93;2.00;;;;;;;17.32;100.00;99594.09;5046227;28;20032;-79
2023/09/21 05:20:39;;;;;;;4.47;1.98;;;;;;;17.28;100.00;99595.00;5047890;28;20081;-78
2023/09/21 05:23:06;;;;;;;3.30;1.95;;;;;;;17.44;100.00;99607.44;5064264;28;20047;-79
2023/09/21 05:25:32;;;;;;;6.07;2.25;;;;;;;17.41;100.00;99605.50;5062947;28;20446;-79
2023/09/21 05:27:57;;;;;;;2.60;1.70;;;;;;;17.40;100.00;99590.56;5059904;28;20024;-80
2023/09/21 05:30:23;;;;;;;4.75;2.13;;;;;;;17.44;100.00;99598.94;5046582;28;20408;-79
2023/09/21 05:32:48;;;;;;;5.22;1.67;;;;;;;17.43;100.00;99600.16;5063188;28;20023;-79
2023/09/21 05:35:16;;;;;;;5.03;1.70;;;;;;;17.44;100.00;99596.09;5063778;28;20032;-79
2023/09/21 05:37:42;;;;;;;3.55;2.22;;;;;;;17.48;100.00;99597.56;5065879;28;20024;-80
2023/09/21 05:40:11;;;;;;;2.85;1.50;;;;;;;17.56;100.00;99597.31;5044732;28;20043;-79
2023/09/21 05:42:36;;;;;;;4.22;1.80;;;;;;;17.62;100.00;99596.25;5042807;28;20028;-81
2023/09/21 05:45:02;;;;;;;3.63;1.80;;;;;;;17.58;100.00;99589.97;5063158;28;21279;-80
2023/09/21 05:47:28;;;;;;;4.80;1.80;;;;;;;17.63;100.00;99597.84;5062328;28;20891;-79
2023/09/21 05:49:54;;;;;;;4.97;2.15;;;;;;;17.75;100.00;99601.09;5048219;28;20055;-80
2023/09/21 05:52:21;;;;;;;2.88;2.33;;;;;;;17.86;100.00;99593.84;5062402;28;20381;-79
2023/09/21 05:54:47;;;;;;;3.10;1.70;;;;;;;17.79;100.00;99604.59;5063121;28;20028;-79
2023/09/21 05:57:13;;;;;;;6.07;2.30;;;;;;;18.28;100.00;99606.88;5059822;28;20025;-84
2023/09/21 05:59:38;;;;;;;3.08;2.13;;;;;;;18.67;100.00;99593.25;5043723;28;20039;-82
2023/09/21 06:02:13;;;;;;;5.75;1.75;;;;;;;18.67;100.00;99610.25;5051699;28;20028;-81
2023/09/21 06:04:45;;;;;;;3.80;2.33;;;;;;;18.56;100.00;99598.53;5048175;28;20036;-83
2023/09/21 06:07:10;;;;;;;3.05;1.88;;;;;;;18.39;100.00;99590.25;5068729;28;20127;-83
2023/09/21 06:09:36;;;;;;;3.97;2.20;;;;;;;18.67;100.00;99607.41;5067972;28;20075;-83
2023/09/21 06:12:01;;;;;;;3.63;1.90;;;;;;;18.62;100.00;99593.84;5050025;28;20056;-83
2023/09/21 06:14:26;;;;;;;5.28;1.73;;;;;;;18.74;100.00;99595.81;5036826;28;20049;-83
2023/09/21 06:16:52;;;;;;;7.68;1.90;;;;;;;18.92;100.00;99603.63;5024416;28;20117;-88
2023/09/21 06:19:18;;;;;;;4.03;2.22;;;;;;;18.96;100.00;99609.94;5028955;28;20392;-88
2023/09/21 06:21:48;;;;;;;7.13;1.77;;;;;;;18.77;100.00;99586.34;5044052;28;20032;-87
2023/09/21 06:24:14;;;;;;;7.88;2.60;;;;;;;19.11;100.00;99598.78;5051338;28;20381;-87
2023/09/21 06:26:39;;;;;;;4.18;1.90;;;;;;;18.89;100.00;99602.50;5026667;28;20029;-86
2023/09/21 06:29:05;;;;;;;4.13;2.22;;;;;;;19.00;100.00;99592.78;5035708;28;20039;-85
2023/09/21 06:31:30;;;;;;;6.60;2.10;;;;;;;19.33;100.00;99600.72;5029328;28;20025;-86
2023/09/21 06:33:59;;;;;;;3.05;1.80;;;;;;;19.25;100.00;99603.88;5027785;28;20020;-86
2023/09/21 06:36:28;;;;;;;3.17;1.80;;;;;;;19.07;100.00;99586.81;5028652;28;20037;-83
2023/09/21 06:38:59;;;;;;;3.30;2.00;;;;;;;18.98;100.00;99595.28;5048115;28;20111;-83
2023/09/21 06:41:26;;;;;;;4.03;2.15;;;;;;;18.81;100.00;99600.44;5054079;28;20033;-82
2023/09/21 06:43:51;;;;;;;4.00;1.90;;;;;;;18.38;100.00;99585.84;5027848;28;20032;-83
2023/09/21 06:46:18;;;;;;;6.50;2.17;;;;;;;18.66;100.00;99600.19;5048570;28;20112;-82
2023/09/21 06:48:44;;;;;;;3.15;2.22;;;;;;;18.59;100.00;99584.22;5031145;28;20037;-84
2023/09/21 06:51:10;;;;;;;2.42;1.60;;;;;;;18.66;100.00;99594.50;5033068;28;20028;-83
2023/09/21 06:53:36;;;;;;;4.28;1.52;;;;;;;18.89;100.00;99596.06;5050649;28;20037;-83
2023/09/21 06:56:02;;;;;;;4.68;2.25;;;;;;;18.70;100.00;99589.50;5051608;28;20021;-83
2023/09/21 06:58:30;;;;;;;2.50;1.65;;;;;;;18.95;100.00;99590.53;5027258;28;20043;-82
2023/09/21 07:00:59;;;;;;;4.75;2.20;;;;;;;19.01;100.00;99597.97;5042367;28;20078;-83
2023/09/21 07:03:24;;;;;;;3.47;1.95;;;;;;;19.01;100.00;99592.28;5050607;28;20051;-84
2023/09/21 07:05:50;;;;;;;6.30;2.17;;;;;;;18.83;100.00;99598.69;5030838;28;20505;-84
2023/09/21 07:08:19;;;;;;;4.88;2.33;;;;;;;18.72;100.00;99589.00;5046782;28;20029;-84
2023/09/21 07:10:45;;;;;;;4.75;3.00;;;;;;;19.07;100.00;99606.66;5034548;28;20040;-85
2023/09/21 07:13:12;;;;;;;9.23;2.78;;;;;;;18.62;100.00;99591.81;5047535;28;20059;-84
2023/09/21 07:15:38;;;;;;;3.95;2.20;;;;;;;18.49;100.00;99596.78;5048188;28;20060;-85
2023/09/21 07:18:07;;;;;;;5.32;2.10;;;;;;;18.58;100.00;99602.50;5050253;28;20043;-85
2023/09/21 07:20:33;;;;;;;3.70;2.03;;;;;;;18.53;100.00;99599.47;5048534;28;20082;-86
2023/09/21 07:22:59;;;;;;;8.20;2.28;;;;;;;18.78;100.00;99599.28;5046772;28;20029;-86
2023/09/21 07:25:25;;;;;;;3.75;2.75;;;;;;;18.41;100.00;99604.75;5048275;28;20029;-86
2023/09/21 07:27:54;;;;;;;4.60;2.00;;;;;;;18.87;100.00;99601.41;5050715;28;20517;-86
2023/09/21 07:30:26;;;;;;;3.72;2.20;;;;;;;18.21;100.00;99607.91;5031284;28;20035;-85
2023/09/21 07:32:56;;;;;;;5.63;2.10;;;;;;;18.38;100.00;99605.66;5029687;28;20087;-85
2023/09/21 07:35:22;;;;;;;3.03;1.90;;;;;;;18.47;100.00;99605.75;5029664;28;20273;-85
2023/09/21 07:37:51;;;;;;;4.57;1.90;;;;;;;18.17;100.00;99600.81;5026860;28;20028;-87
2023/09/21 07:40:17;;;;;;;4.32;2.05;;;;;;;18.41;100.00;99599.09;5036351;28;20033;-86
2023/09/21 07:42:44;;;;;;;8.80;2.58;;;;;;;18.43;100.00;99609.97;5049005;28;20024;-85
2023/09/21 07:45:10;;;;;;;7.97;3.92;;;;;;;18.61;100.00;99609.25;5030814;28;20035;-86
2023/09/21 07:47:37;;;;;;;3.63;2.38;;;;;;;18.62;100.00;99616.53;5033139;28;20037;-86
2023/09/21 07:50:03;;;;;;;6.57;2.70;;;;;;;18.82;100.00;99616.94;5031303;28;20451;-87
2023/09/21 07:52:30;;;;;;;3.97;2.30;;;;;;;19.39;100.00;99618.72;5047456;28;20119;-87
2023/09/21 07:54:56;;;;;;;5.70;3.13;;;;;;;19.32;100.00;99627.53;5050757;28;20052;-86
2023/09/21 07:57:22;;;;;;;3.08;1.73;;;;;;;19.20;100.00;99632.84;5032621;28;20025;-86
2023/09/21 07:59:47;;;;;;;2.92;1.90;;;;;;;19.33;100.00;99634.78;5027665;28;20138;-86
2023/09/21 08:02:13;;;;;;;3.83;2.63;;;;;;;19.08;100.00;99633.78;5043632;28;20025;-87
2023/09/21 08:04:38;;;;;;;3.22;2.15;;;;;;;19.30;100.00;99642.19;5030290;28;20441;-86
2023/09/21 08:07:05;;;;;;;5.13;2.63;;;;;;;19.49;100.00;99649.47;5029743;28;20029;-86
2023/09/21 08:09:31;;;;;;;4.05;2.20;;;;;;;19.39;100.00;99647.88;5038954;28;20028;-86
2023/09/21 08:11:57;;;;;;;4.57;2.22;;;;;;;19.54;100.00;99650.91;5029239;28;20030;-85
2023/09/21 08:14:23;;;;;;;4.63;2.17;;;;;;;19.25;100.00;99660.63;5056939;28;20042;-86
2023/09/21 08:16:49;;;;;;;4.07;2.78;;;;;;;19.20;100.00;99666.88;5074454;28;20032;-86
2023/09/21 08:19:14;;;;;;;5.43;2.13;;;;;;;18.95;100.00;99664.25;5058374;28;20039;-87
2023/09/21 08:21:40;;;;;;;7.07;2.50;;;;;;;18.95;100.00;99669.94;5055134;28;20522;-87
2023/09/21 08:24:09;;;;;;;3.72;2.35;;;;;;;18.72;100.00;99683.34;5054637;28;20381;-86
2023/09/21 08:26:35;;;;;;;7.25;2.20;;;;;;;18.75;100.00;99696.59;5070668;28;20075;-87
2023/09/21 08:29:01;;;;;;;4.97;2.53;;;;;;;18.31;100.00;99675.97;5053775;28;20099;-85
2023/09/21 08:31:27;;;;;;;4.15;1.95;;;;;;;18.98;100.00;99675.47;5056011;28;20472;-88
2023/09/21 08:33:53;;;;;;;4.03;2.47;;;;;;;19.07;100.00;99703.88;5052661;28;20024;-89
2023/09/21 08:36:18;;;;;;;4.82;2.45;;;;;;;18.85;100.00;99698.25;5056784;28;20024;-86
2023/09/21 08:38:44;;;;;;;5.07;1.92;;;;;;;18.71;100.00;99692.31;5056492;28;20054;-87
2023/09/21 08:41:12;;;;;;;3.13;1.70;;;;;;;18.69;100.00;99701.28;5054192;28;20056;-89
2023/09/21 08:43:38;;;;;;;3.80;1.80;;;;;;;18.62;100.00;99698.72;5053329;28;20037;-85
2023/09/21 08:46:06;;;;;;;4.68;1.98;;;;;;;18.23;100.00;99698.88;5069387;28;20036;-86
2023/09/21 08:48:33;;;;;;;2.72;1.50;;;;;;;17.87;100.00;99702.97;5073415;28;20024;-86
2023/09/21 08:51:01;;;;;;;2.22;1.30;;;;;;;17.37;100.00;99698.16;5054766;28;20500;-86
2023/09/21 08:53:26;;;;;;;2.55;1.10;;;;;;;17.11;100.00;99703.81;5076000;28;20036;-86
2023/09/21 08:55:56;;;;;;;2.17;1.27;;;;;;;17.13;100.00;99711.84;5049863;28;20046;-86
2023/09/21 08:58:23;;;;;;;2.85;1.38;;;;;;;17.23;100.00;99713.56;5069242;28;20560;-86
2023/09/21 09:00:53;;;;;;;2.53;1.15;;;;;;;17.19;100.00;99721.38;5054856;28;20024;-87
2023/09/21 09:03:27;;;;;;;1.30;0.75;;;;;;;16.88;100.00;99713.41;5072607;28;20028;-87
2023/09/21 09:05:55;;;;;;;1.80;1.23;;;;;;;16.99;100.00;99724.38;5072964;28;20090;-86
2023/09/21 09:08:22;;;;;;;1.90;0.90;;;;;;;17.08;100.00;99727.34;5072315;28;20379;-86
2023/09/21 09:10:48;;;;;;;1.38;0.68;;;;;;;17.15;100.00;99735.59;5073396;28;20040;-87
2023/09/21 09:13:13;;;;;;;1.10;0.70;;;;;;;17.11;100.00;99743.41;5066811;28;20047;-86
2023/09/21 09:15:41;;;;;;;1.05;0.70;;;;;;;17.12;100.00;99733.69;5034636;28;20086;-86
2023/09/21 09:18:08;;;;;;;1.95;0.75;;;;;;;17.09;100.00;99740.22;5055089;28;20504;-87
2023/09/21 09:20:38;;;;;;;1.95;0.52;;;;;;;16.88;100.00;99741.66;5040141;28;20388;-87
2023/09/21 09:23:10;;;;;;;3.33;0.75;;;;;;;16.87;100.00;99742.94;5036024;28;20025;-85
2023/09/21 09:25:45;;;;;;;1.23;0.70;;;;;;;16.90;100.00;99749.72;5054341;28;20040;-80
2023/09/21 09:28:10;;;;;;;1.33;0.73;;;;;;;16.97;100.00;99743.84;5030997;28;20063;-82
2023/09/21 09:30:36;;;;;;;1.45;0.77;;;;;;;16.96;100.00;99743.03;5031112;28;20428;-81
2023/09/21 09:33:09;;;;;;;1.90;0.70;;;;;;;16.79;100.00;99745.13;5039627;28;20025;-81
2023/09/21 09:35:37;;;;;;;1.02;0.60;;;;;;;16.85;100.00;99751.84;5031538;28;20032;-81
2023/09/21 09:38:08;;;;;;;1.00;0.60;;;;;;;16.83;100.00;99748.66;5034127;28;20132;-81
2023/09/21 09:40:37;;;;;;;1.25;0.63;;;;;;;16.91;100.00;99748.44;5052606;28;20060;-81
2023/09/21 09:43:05;;;;;;;2.70;0.80;;;;;;;16.88;100.00;99738.06;5034546;28;20053;-80
2023/09/21 09:45:31;;;;;;;2.25;0.63;;;;;;;16.88;100.00;99755.81;5032294;28;20040;-81
2023/09/21 09:48:01;;;;;;;0.77;0.43;;;;;;;16.85;100.00;99743.38;5038107;28;20472;-80
2023/09/21 09:50:33;;;;;;;2.05;0.68;;;;;;;16.94;100.00;99750.41;5050054;28;20032;-81
2023/09/21 09:53:11;;;;;;;1.00;0.50;;;;;;;16.86;100.00;99756.28;5031006;28;20055;-80
2023/09/21 09:55:41;;;;;;;2.30;0.60;;;;;;;16.81;100.00;99759.63;5027645;28;20081;-80
2023/09/21 09:58:08;;;;;;;1.58;0.35;;;;;;;16.81;100.00;99764.50;5031170;28;20032;-81
2023/09/21 10:00:35;;;;;;;0.68;0.55;;;;;;;16.71;100.00;99752.22;5030981;28;20060;-80
2023/09/21 10:03:03;;;;;;;1.17;0.60;;;;;;;16.73;100.00;99758.22;5032013;28;20035;-80
2023/09/21 10:05:29;;;;;;;2.25;0.60;;;;;;;16.72;100.00;99759.47;5031569;28;20040;-81
2023/09/21 10:08:03;;;;;;;1.40;0.68;;;;;;;16.84;100.00;99766.41;5032845;28;20033;-80
2023/09/21 10:10:36;;;;;;;1.10;0.40;;;;;;;16.73;100.00;99751.78;5031296;28;20033;-80
2023/09/21 10:13:02;;;;;;;1.63;0.90;;;;;;;16.75;100.00;99747.25;5045263;28;20082;-80
2023/09/21 10:15:33;;;;;;;1.02;0.80;;;;;;;16.79;100.00;99728.16;5047613;28;20543;-80
2023/09/21 10:18:01;;;;;;;3.90;1.20;;;;;;;16.76;100.00;99714.97;5034200;28;20033;-80
2023/09/21 10:20:32;;;;;;;0.90;0.38;;;;;;;16.78;100.00;99720.94;5047026;28;20048;-80
2023/09/21 10:23:07;;;;;;;0.80;0.43;;;;;;;16.80;100.00;99718.50;5049008;28;20033;-80
2023/09/21 10:25:47;;;;;;;2.65;0.60;;;;;;;16.83;100.00;99716.81;5032115;28;20032;-80
2023/09/21 10:28:28;;;;;;;0.98;0.80;;;;;;;16.86;100.00;99735.66;5030277;28;20043;-80
2023/09/21 10:30:54;;;;;;;0.85;0.50;;;;;;;16.84;100.00;99741.78;5025282;28;20393;-80
2023/09/21 10:33:20;;;;;;;1.70;0.60;;;;;;;16.72;100.00;99728.41;5031647;28;20385;-79
2023/09/21 10:35:46;;;;;;;1.55;0.60;;;;;;;16.62;100.00;99740.78;5033473;28;20564;-80
2023/09/21 10:38:13;;;;;;;1.30;0.80;;;;;;;16.70;100.00;99761.13;5043733;28;20111;-80
2023/09/21 10:40:38;;;;;;;2.92;0.80;;;;;;;16.75;100.00;99695.63;5031915;28;20029;-80
2023/09/21 10:43:39;;;;;;;0.73;0.52;;;;;;;16.72;100.00;99748.16;5027189;28;20083;-80
2023/09/21 10:46:20;;;;;;;1.45;0.70;;;;;;;16.67;100.00;99698.66;5029951;28;20029;-80
2023/09/21 10:48:46;;;;;;;2.75;0.68;;;;;;;16.71;100.00;99726.78;5032266;28;20191;-80
2023/09/21 10:51:12;;;;;;;1.45;0.60;;;;;;;16.69;100.00;99734.94;5047945;28;20053;-80
2023/09/21 10:53:37;;;;;;;2.78;0.80;;;;;;;16.76;100.00;99729.09;5026624;28;20028;-81
2023/09/21 10:56:05;;;;;;;0.63;0.40;;;;;;;16.71;100.00;99715.50;5030523;28;20064;-80
2023/09/21 10:58:34;;;;;;;2.05;0.50;;;;;;;16.74;100.00;99717.44;5032067;28;20113;-80
2023/09/21 11:01:01;;;;;;;1.33;0.60;;;;;;;16.74;100.00;99714.59;5039516;28;20025;-80
2023/09/21 11:03:29;;;;;;;2.08;0.98;;;;;;;16.72;100.00;99722.75;5044772;28;20040;-80
2023/09/21 11:05:56;;;;;;;1.02;0.43;;;;;;;16.67;100.00;99731.75;5049815;28;20031;-80
2023/09/21 11:08:24;;;;;;;1.13;0.57;;;;;;;16.73;100.00;99724.31;5029277;28;20550;-80
2023/09/21 11:10:50;;;;;;;1.05;0.60;;;;;;;16.61;100.00;99730.72;5048044;28;20321;-80
2023/09/21 11:13:19;;;;;;;0.60;0.40;;;;;;;16.67;100.00;99715.63;5029077;28;20123;-80
2023/09/21 11:15:45;;;;;;;1.00;0.70;;;;;;;16.64;100.00;99704.41;5048347;28;20447;-80
2023/09/21 11:18:11;;;;;;;1.58;0.80;;;;;;;16.41;100.00;99726.03;5048669;28;20025;-80
2023/09/21 11:20:37;;;;;;;1.63;0.88;;;;;;;16.54;100.00;99728.91;5043202;28;20079;-80
2023/09/21 11:23:03;;;;;;;1.55;0.65;;;;;;;16.69;100.00;99740.56;5047549;28;20033;-80
2023/09/21 11:25:29;;;;;;;2.30;0.65;;;;;;;16.56;100.00;99776.47;5048617;28;20028;-80